createdAt,value
2019-06-20T00:04:09.697Z,25.22
2019-06-20T00:09:11.774Z,25.14
2019-06-20T00:14:13.877Z,25.07
2019-06-20T00:19:15.965Z,25.02
2019-06-20T00:24:18.054Z,24.95
2019-06-20T00:29:20.107Z,25.00
2019-06-20T00:34:22.209Z,24.94
2019-06-20T00:39:24.311Z,24.94
2019-06-20T00:44:26.411Z,24.82
2019-06-20T00:49:28.502Z,24.75
2019-06-20T00:54:30.537Z,24.69
2019-06-20T00:59:32.603Z,24.61
2019-06-20T01:04:34.681Z,24.59
2019-06-20T01:09:36.820Z,24.53
2019-06-20T01:14:38.890Z,24.49
2019-06-20T01:19:41.018Z,24.40
2019-06-20T01:24:43.171Z,24.38
2019-06-20T01:29:45.250Z,24.26
2019-06-20T01:34:47.317Z,24.21
2019-06-20T01:39:49.380Z,24.16
2019-06-20T01:44:51.457Z,24.06
2019-06-20T01:49:53.538Z,24.02
2019-06-20T01:54:55.584Z,23.91
2019-06-20T01:59:57.681Z,23.77
2019-06-20T02:04:59.798Z,23.72
2019-06-20T02:10:01.856Z,23.73
2019-06-20T02:15:04.255Z,23.68
2019-06-20T02:20:06.811Z,23.76
2019-06-20T02:25:09.597Z,23.67
2019-06-20T02:30:11.904Z,23.64
2019-06-20T02:35:13.990Z,23.61
2019-06-20T02:40:16.070Z,23.58
2019-06-20T02:45:18.512Z,23.48
2019-06-20T02:50:20.913Z,23.38
2019-06-20T02:55:22.933Z,23.24
2019-06-20T03:01:04.749Z,23.15
2019-06-20T03:06:06.834Z,23.05
2019-06-20T03:11:10.558Z,22.95
2019-06-20T03:16:12.659Z,22.92
2019-06-20T03:21:14.757Z,22.88
2019-06-20T03:26:16.839Z,22.84
2019-06-20T03:31:18.950Z,22.90
2019-06-20T03:36:21.134Z,22.93
2019-06-20T03:41:23.364Z,22.94
2019-06-20T03:46:27.556Z,22.97
2019-06-20T03:51:29.730Z,23.35
2019-06-20T03:56:31.906Z,23.82
2019-06-20T04:01:35.660Z,24.22
2019-06-20T04:06:37.801Z,24.51
2019-06-20T04:11:39.881Z,24.72
2019-06-20T04:16:41.978Z,24.91
2019-06-20T04:21:44.227Z,24.30
2019-06-20T04:26:46.330Z,23.77
2019-06-20T04:31:48.419Z,23.80
2019-06-20T04:36:52.313Z,24.07
2019-06-20T04:41:54.402Z,24.34
2019-06-20T04:47:02.869Z,24.60
2019-06-20T04:52:11.439Z,24.77
2019-06-20T04:57:18.454Z,24.79
2019-06-20T05:14:46.993Z,25.00
2019-06-20T05:19:49.232Z,24.82
2019-06-20T05:24:59.483Z,24.79
2019-06-20T05:30:01.915Z,24.85
2019-06-20T05:35:04.285Z,24.89
2019-06-20T05:40:07.249Z,24.95
2019-06-20T05:45:10.067Z,24.80
2019-06-20T05:50:18.135Z,24.39
2019-06-20T05:55:20.433Z,24.37
2019-06-20T06:00:22.922Z,24.67
2019-06-20T06:05:25.065Z,24.81
2019-06-20T06:10:27.089Z,24.93
2019-06-20T06:15:29.161Z,24.93
2019-06-20T06:20:31.281Z,25.73
2019-06-20T06:25:33.462Z,25.78
2019-06-20T06:30:35.756Z,26.01
2019-06-20T06:35:38.021Z,26.22
2019-06-20T06:40:40.159Z,26.88
2019-06-20T06:45:47.343Z,26.82
2019-06-20T06:50:49.555Z,26.74
2019-06-20T06:55:51.675Z,26.68
2019-06-20T07:00:53.738Z,26.48
2019-06-20T07:06:03.182Z,26.33
2019-06-20T07:11:18.830Z,26.03
2019-06-20T07:16:20.944Z,25.73
2019-06-20T07:21:23.145Z,26.41
2019-06-20T07:26:25.216Z,27.25
2019-06-20T07:31:27.381Z,27.08
2019-06-20T07:36:29.500Z,26.92
2019-06-20T07:41:31.576Z,27.06
2019-06-20T07:46:33.697Z,27.88
2019-06-20T07:51:37.004Z,28.33
2019-06-20T07:56:39.246Z,28.58
2019-06-20T08:01:41.343Z,28.95
2019-06-20T08:06:44.668Z,29.11
2019-06-20T08:11:46.724Z,29.31
2019-06-20T08:16:48.834Z,29.55
2019-06-20T08:21:50.961Z,29.54
2019-06-20T08:26:53.051Z,29.88
2019-06-20T08:31:55.957Z,30.04
2019-06-20T08:37:00.443Z,30.18
2019-06-20T08:42:04.304Z,30.21
2019-06-20T08:47:06.592Z,30.08
2019-06-20T08:52:08.686Z,30.00
2019-06-20T08:57:10.741Z,29.95
2019-06-20T09:02:12.858Z,30.07
2019-06-20T09:07:15.245Z,30.13
2019-06-20T09:12:17.286Z,30.04
2019-06-20T09:17:19.347Z,29.93
2019-06-20T09:22:21.452Z,29.87
2019-06-20T09:27:23.584Z,29.95
2019-06-20T09:32:25.659Z,29.89
2019-06-20T09:37:27.825Z,29.70
2019-06-20T09:42:29.934Z,29.70
2019-06-20T09:47:32.058Z,29.80
2019-06-20T09:52:34.186Z,29.87
2019-06-20T09:57:36.317Z,29.89
2019-06-20T10:02:39.112Z,29.90
2019-06-20T10:07:43.200Z,29.87
2019-06-20T10:12:46.760Z,29.94
2019-06-20T10:17:50.100Z,30.07
2019-06-20T10:22:53.063Z,30.16
2019-06-20T10:27:55.345Z,30.21
2019-06-20T10:32:57.870Z,30.32
2019-06-20T10:38:00.124Z,30.40
2019-06-20T10:43:02.195Z,30.68
2019-06-20T10:48:04.293Z,30.74
2019-06-20T10:53:06.407Z,30.56
2019-06-20T10:58:08.459Z,30.62
2019-06-20T11:03:10.617Z,30.43
2019-06-20T11:08:12.824Z,30.29
2019-06-20T11:13:17.321Z,30.27
2019-06-20T11:18:19.380Z,30.56
2019-06-20T11:23:21.476Z,30.50
2019-06-20T11:28:23.526Z,30.27
2019-06-20T11:33:25.597Z,30.14
2019-06-20T11:38:27.718Z,30.00
2019-06-20T11:43:29.993Z,29.97
2019-06-20T11:48:32.039Z,30.16
2019-06-20T11:53:35.303Z,30.38
2019-06-20T11:58:38.136Z,30.23
2019-06-20T12:03:40.762Z,30.06
2019-06-20T12:08:43.067Z,30.11
2019-06-20T12:13:46.578Z,30.07
2019-06-20T12:18:49.463Z,29.88
2019-06-20T12:23:51.754Z,29.77
2019-06-20T12:28:53.924Z,29.73
2019-06-20T12:33:56.016Z,29.77
2019-06-20T12:38:58.085Z,29.48
2019-06-20T12:44:00.682Z,29.43
2019-06-20T12:49:03.299Z,29.43
2019-06-20T12:54:05.523Z,29.44
2019-06-20T12:59:08.007Z,29.36
2019-06-20T13:04:10.146Z,29.29
2019-06-20T13:09:12.247Z,29.39
2019-06-20T13:14:14.356Z,29.44
2019-06-20T13:19:17.628Z,29.52
2019-06-20T13:24:19.724Z,29.50
2019-06-20T13:29:23.618Z,29.49
2019-06-20T13:34:25.973Z,29.76
2019-06-20T13:39:32.516Z,29.76
2019-06-20T13:44:34.642Z,29.78
2019-06-20T13:49:36.826Z,29.87
2019-06-20T13:54:39.628Z,29.79
2019-06-20T13:59:43.419Z,29.67
2019-06-20T14:04:48.345Z,29.67
2019-06-20T14:09:51.104Z,29.76
2019-06-20T14:14:54.357Z,29.73
2019-06-20T14:19:56.810Z,29.72
2019-06-20T14:25:01.248Z,29.67
2019-06-20T14:30:04.218Z,29.61
2019-06-20T14:35:07.424Z,29.41
2019-06-20T14:40:12.418Z,29.49
2019-06-20T14:45:15.106Z,29.46
2019-06-20T14:50:17.584Z,29.58
2019-06-20T14:55:20.255Z,29.72
2019-06-20T15:00:23.435Z,29.68
2019-06-20T15:05:25.647Z,29.68
2019-06-20T15:10:28.240Z,29.53
2019-06-20T15:15:31.598Z,29.42
2019-06-20T15:20:34.057Z,29.42
2019-06-20T15:25:36.189Z,29.41
2019-06-20T15:30:38.406Z,29.41
2019-06-20T15:35:40.521Z,29.29
2019-06-20T15:40:47.939Z,29.40
2019-06-20T15:45:50.767Z,29.54
2019-06-20T15:50:54.207Z,29.59
2019-06-20T15:55:56.445Z,29.60
2019-06-20T16:00:58.584Z,29.56
2019-06-20T16:06:00.769Z,29.44
2019-06-20T16:11:03.085Z,29.42
2019-06-20T16:16:05.196Z,29.42
2019-06-20T16:21:09.544Z,29.42
2019-06-20T16:26:11.974Z,29.45
2019-06-20T16:31:26.335Z,29.21
2019-06-20T16:36:19.308Z,29.21
2019-06-20T16:41:21.410Z,29.10
2019-06-20T16:46:23.509Z,29.07
2019-06-20T16:51:25.605Z,28.92
2019-06-20T16:56:27.849Z,28.92
2019-06-20T17:01:30.031Z,28.90
2019-06-20T17:06:32.094Z,28.85
2019-06-20T17:11:34.186Z,28.80
2019-06-20T17:16:36.274Z,28.70
2019-06-20T17:21:38.404Z,28.71
2019-06-20T17:26:40.558Z,28.64
2019-06-20T17:31:42.692Z,28.57
2019-06-20T17:36:45.024Z,28.46
2019-06-20T17:41:55.275Z,28.34
2019-06-20T17:46:51.279Z,28.17
2019-06-20T17:51:55.326Z,28.04
2019-06-20T17:56:57.647Z,27.96
2019-06-20T18:02:11.289Z,27.91
2019-06-20T18:07:15.123Z,27.86
2019-06-20T18:12:18.234Z,27.81
2019-06-20T18:17:23.850Z,27.76
2019-06-20T18:22:27.386Z,27.70
2019-06-20T18:27:31.541Z,27.69
2019-06-20T18:32:35.467Z,27.64
2019-06-20T18:37:37.528Z,27.52
2019-06-20T18:42:39.643Z,27.41
2019-06-20T18:47:41.723Z,27.43
2019-06-20T18:52:52.053Z,27.41
2019-06-20T18:57:47.928Z,27.32
2019-06-20T19:02:54.268Z,27.24
2019-06-20T19:07:56.410Z,27.29
2019-06-20T19:13:00.686Z,27.30
2019-06-20T19:18:02.891Z,27.29
2019-06-20T19:23:05.269Z,27.23
2019-06-20T19:28:07.433Z,27.17
2019-06-20T19:33:09.593Z,27.11
2019-06-20T19:38:11.833Z,26.93
2019-06-20T19:43:14.070Z,26.92
2019-06-20T19:48:16.361Z,26.91
2019-06-20T19:53:20.688Z,26.90
2019-06-20T19:58:22.975Z,26.77
2019-06-20T20:03:25.118Z,26.77
2019-06-20T20:08:28.784Z,26.58
2019-06-20T20:13:31.021Z,26.51
2019-06-20T20:18:33.191Z,26.48
2019-06-20T20:23:35.323Z,26.35
2019-06-20T20:28:37.362Z,26.19
2019-06-20T20:33:39.595Z,26.02
2019-06-20T20:38:41.646Z,25.96
2019-06-20T20:43:43.712Z,25.91
2019-06-20T20:48:45.881Z,25.78
2019-06-20T20:53:48.059Z,25.41
2019-06-20T20:58:50.191Z,25.14
2019-06-20T21:03:52.223Z,25.12
2019-06-20T21:14:09.614Z,24.81
2019-06-20T21:19:12.946Z,24.48
2019-06-20T21:24:15.020Z,24.21
2019-06-20T21:29:17.290Z,24.01
2019-06-20T21:34:19.342Z,23.86
2019-06-20T21:39:23.536Z,23.71
2019-06-20T21:44:25.635Z,23.55
2019-06-20T21:49:27.780Z,23.47
2019-06-20T21:54:29.825Z,23.40
2019-06-20T21:59:31.915Z,23.29
2019-06-20T22:04:34.101Z,23.20
2019-06-20T22:09:36.269Z,23.10
2019-06-20T22:14:38.344Z,23.04
2019-06-20T22:19:40.440Z,23.08
2019-06-20T22:24:42.524Z,23.10
2019-06-20T22:29:44.598Z,23.09
2019-06-20T22:34:46.826Z,23.04
2019-06-20T22:39:48.914Z,23.02
2019-06-20T22:44:50.858Z,23.03
2019-06-20T22:49:52.933Z,23.02
2019-06-20T22:54:54.996Z,23.01
2019-06-20T22:59:57.180Z,22.96
2019-06-20T23:04:59.073Z,22.88
2019-06-20T23:10:10.534Z,22.89
2019-06-20T23:15:05.196Z,22.87
2019-06-20T23:20:07.735Z,22.91
2019-06-20T23:25:10.675Z,22.92
2019-06-20T23:30:13.971Z,22.91
2019-06-20T23:35:16.187Z,22.87
2019-06-20T23:40:18.419Z,22.80
2019-06-20T23:45:20.577Z,22.76
2019-06-20T23:50:22.625Z,22.75
2019-06-20T23:55:24.711Z,22.70
